TAF KSBM
AMD KSBM 082102Z 0821/0918 31005KT P6SM SCT250 FM090000 28003KT P6SM FEW250 FM090400 VRB03KT P6SM BKN250 FM091100 16008KT P6SM OVC100 FM091400 15011G22KT P6SM OVC090 FM091600 15015G26KT 5SM -SN BR OVC040=
METAR KSBM
WC KSBM
WS KSBM
WV KSBM